Time;durP1;ratioP1;P1;durP2;ratioP2;P2;SDS_P1;SDS_P2;PMS_P1;PMS_P2;Temp;Humidity;BMP_temperature;BMP_pressure;BME280_temperature;BME280_humidity;BME280_pressure;Samples;Min_cycle;Max_cycle;Signal;HPM_P1;HPM_P2
2022/07/23 00:04:38;;;;;;;0.57;0.50;;;;;;;18.99;93.74;101582.38;20885604;28;20079;-75
2022/07/23 00:14:39;;;;;;;0.45;0.45;;;;;;;19.19;93.91;101620.38;20885281;28;20114;-75
2022/07/23 00:24:41;;;;;;;0.50;0.50;;;;;;;19.19;93.79;101612.28;20883252;28;20049;-75
2022/07/23 00:34:42;;;;;;;0.60;0.52;;;;;;;19.17;93.48;101600.75;20883663;28;20049;-76
2022/07/23 00:44:44;;;;;;;0.32;0.32;;;;;;;19.17;93.25;101598.06;20883291;28;20075;-76
2022/07/23 00:54:47;;;;;;;0.70;0.50;;;;;;;19.13;93.39;101588.50;20882640;28;20144;-75
2022/07/23 01:04:48;;;;;;;1.00;0.73;;;;;;;19.16;92.92;101601.75;20882375;28;20053;-75
2022/07/23 01:14:55;;;;;;;0.47;0.47;;;;;;;19.15;92.88;101594.63;20880682;28;20485;-76
2022/07/23 01:24:56;;;;;;;1.73;0.60;;;;;;;19.12;92.54;101578.69;20878861;28;20095;-75
2022/07/23 01:35:00;;;;;;;0.45;0.45;;;;;;;19.17;92.68;101584.56;20878872;28;20611;-75
2022/07/23 01:45:03;;;;;;;0.40;0.40;;;;;;;19.14;92.51;101568.63;20879947;28;20048;-75
2022/07/23 01:55:07;;;;;;;0.63;0.43;;;;;;;19.14;92.14;101571.31;20862189;28;20045;-75
2022/07/23 02:05:10;;;;;;;0.53;0.53;;;;;;;19.13;92.05;101561.50;20878464;28;20043;-75
2022/07/23 02:15:11;;;;;;;0.88;0.70;;;;;;;19.12;91.81;101546.31;20878542;28;20055;-75
2022/07/23 02:25:14;;;;;;;0.45;0.45;;;;;;;19.12;91.82;101551.69;20877601;28;20041;-75
2022/07/23 02:35:16;;;;;;;0.80;0.60;;;;;;;18.82;91.46;101499.28;20870573;28;20573;-76
2022/07/23 02:45:18;;;;;;;0.50;0.40;;;;;;;18.49;91.19;101449.84;20878981;28;20100;-76
2022/07/23 02:55:20;;;;;;;0.60;0.57;;;;;;;19.10;91.76;101554.50;20875209;28;20068;-75
2022/07/23 03:05:22;;;;;;;1.60;0.60;;;;;;;19.10;91.24;101559.91;20832021;28;20060;-75
2022/07/23 03:15:23;;;;;;;0.50;0.50;;;;;;;18.99;90.94;101539.22;20885960;28;20049;-75
2022/07/23 03:25:25;;;;;;;0.73;0.50;;;;;;;19.08;90.56;101543.00;20872837;28;20076;-75
2022/07/23 03:35:27;;;;;;;0.90;0.60;;;;;;;19.06;90.32;101549.53;20954317;28;20135;-75
2022/07/23 03:45:51;;;;;;;0.60;0.60;;;;;;;19.05;89.87;101537.00;20966203;28;20048;-75
2022/07/23 03:55:53;;;;;;;0.77;0.57;;;;;;;18.85;89.60;101515.19;20969762;28;20048;-75
2022/07/23 04:05:55;;;;;;;1.05;0.60;;;;;;;19.07;89.18;101551.22;20951302;28;20036;-75
2022/07/23 04:15:58;;;;;;;0.85;0.63;;;;;;;18.96;88.70;101530.50;20950025;28;20497;-75
2022/07/23 04:25:59;;;;;;;0.60;0.60;;;;;;;19.06;88.57;101557.63;20949675;28;20123;-75
2022/07/23 04:36:01;;;;;;;0.77;0.60;;;;;;;19.02;88.35;101550.75;20932489;28;20048;-75
2022/07/23 04:46:03;;;;;;;1.15;0.57;;;;;;;19.05;88.29;101570.22;20945885;28;20050;-75
2022/07/23 04:56:13;;;;;;;0.82;0.47;;;;;;;19.04;88.11;101565.81;20963041;28;20055;-75
2022/07/23 05:06:16;;;;;;;0.50;0.40;;;;;;;18.82;87.58;101535.22;20858046;28;20119;-75
2022/07/23 05:16:17;;;;;;;0.60;0.50;;;;;;;19.05;87.77;101569.41;20877266;28;20048;-75
2022/07/23 05:26:19;;;;;;;1.23;0.60;;;;;;;19.06;87.44;101579.22;20878920;28;20094;-75
2022/07/23 05:36:23;;;;;;;0.50;0.50;;;;;;;19.04;87.43;101583.88;20849877;28;20056;-76
2022/07/23 05:46:27;;;;;;;0.40;0.40;;;;;;;19.04;87.49;101594.66;20871767;28;20049;-75
2022/07/23 05:56:34;;;;;;;0.60;0.60;;;;;;;18.91;87.07;101568.66;20872849;28;20072;-75
2022/07/23 06:06:36;;;;;;;0.45;0.45;;;;;;;18.77;87.30;101563.53;20861529;28;20436;-75
2022/07/23 06:16:38;;;;;;;0.88;0.40;;;;;;;19.04;87.46;101610.84;20862106;28;20040;-75
2022/07/23 06:26:40;;;;;;;1.02;0.60;;;;;;;19.04;88.56;101611.69;20869001;28;20127;-75
2022/07/23 06:36:42;;;;;;;1.27;0.85;;;;;;;19.05;90.16;101623.38;20857623;28;20041;-76
2022/07/23 06:46:43;;;;;;;2.55;0.65;;;;;;;19.02;91.80;101604.72;20866316;28;20114;-75
2022/07/23 06:56:45;;;;;;;2.30;0.90;;;;;;;19.06;92.59;101634.03;20818935;28;20080;-76
2022/07/23 07:06:47;;;;;;;2.40;0.63;;;;;;;19.07;93.23;101638.44;20800514;28;20069;-76
2022/07/23 07:16:48;;;;;;;4.07;0.93;;;;;;;19.08;93.40;101644.69;20802047;28;20119;-76
2022/07/23 07:26:50;;;;;;;1.40;0.90;;;;;;;19.09;93.31;101641.84;20793822;28;20049;-76
2022/07/23 07:36:51;;;;;;;3.50;1.35;;;;;;;19.12;93.03;101646.16;20795976;28;20068;-76
2022/07/23 07:46:53;;;;;;;1.80;0.95;;;;;;;19.17;92.56;101670.94;20793396;28;20057;-76
2022/07/23 07:56:54;;;;;;;2.40;0.70;;;;;;;19.20;92.14;101661.69;20875049;28;20409;-75
2022/07/23 08:06:56;;;;;;;1.85;0.70;;;;;;;19.22;91.65;101671.41;20871113;28;20461;-75
2022/07/23 08:16:57;;;;;;;1.77;0.68;;;;;;;19.21;91.35;101677.78;20875000;28;20151;-76
2022/07/23 08:27:16;;;;;;;1.95;0.82;;;;;;;19.26;90.78;101674.72;20869371;28;20058;-76
2022/07/23 08:37:17;;;;;;;4.47;0.93;;;;;;;19.25;90.23;101678.41;20868198;28;20049;-76
2022/07/23 08:47:19;;;;;;;0.65;0.60;;;;;;;19.27;89.75;101677.28;20873907;28;20557;-75
2022/07/23 08:57:20;;;;;;;1.35;0.47;;;;;;;19.28;90.25;101683.53;20853186;28;20048;-76
2022/07/23 09:07:22;;;;;;;1.67;0.50;;;;;;;19.33;89.68;101685.84;20845438;28;20084;-75
2022/07/23 09:17:24;;;;;;;0.50;0.50;;;;;;;18.93;87.65;101604.44;20797418;28;20594;-76
2022/07/23 09:27:53;;;;;;;0.75;0.43;;;;;;;19.46;87.40;101683.00;20821634;28;20147;-76
2022/07/23 09:38:02;;;;;;;0.82;0.40;;;;;;;19.50;87.52;101692.56;20837727;28;20049;-75
2022/07/23 09:48:11;;;;;;;3.13;0.52;;;;;;;19.48;88.47;101684.59;20873897;28;20128;-75
2022/07/23 09:58:13;;;;;;;0.50;0.30;;;;;;;19.44;88.73;101669.59;20856085;28;20056;-74
2022/07/23 10:08:17;;;;;;;1.52;0.55;;;;;;;19.49;88.88;101693.53;20883561;28;20045;-75
2022/07/23 10:18:37;;;;;;;0.30;0.30;;;;;;;18.96;86.83;101601.50;20855192;28;20409;-75
2022/07/23 10:29:02;;;;;;;0.32;0.30;;;;;;;19.50;86.26;101693.44;20818754;28;20063;-76
2022/07/23 10:39:05;;;;;;;0.57;0.50;;;;;;;19.51;85.49;101696.97;20879098;28;20053;-75
2022/07/23 10:49:27;;;;;;;0.40;0.40;;;;;;;19.51;85.32;101699.66;20881724;28;20043;-75
2022/07/23 10:59:30;;;;;;;0.63;0.40;;;;;;;19.34;85.10;101665.97;20880211;28;20076;-76
2022/07/23 11:09:43;;;;;;;0.93;0.55;;;;;;;19.32;84.60;101668.81;20881037;28;20060;-75
2022/07/23 11:20:09;;;;;;;0.60;0.43;;;;;;;19.53;84.76;101703.97;20854986;28;20053;-75
2022/07/23 11:30:31;;;;;;;0.88;0.50;;;;;;;19.42;84.64;101685.09;20837963;28;20057;-76
2022/07/23 11:40:34;;;;;;;1.15;0.40;;;;;;;19.56;84.59;101697.44;20833734;28;20151;-76
2022/07/23 11:50:36;;;;;;;1.38;0.47;;;;;;;19.48;84.74;101691.81;20855235;28;20064;-76
2022/07/23 12:00:40;;;;;;;0.57;0.50;;;;;;;19.58;84.36;101718.94;20834525;28;20131;-75
2022/07/23 12:10:44;;;;;;;0.83;0.40;;;;;;;19.59;84.35;101707.16;20841611;28;20048;-75
2022/07/23 12:20:52;;;;;;;0.30;0.30;;;;;;;19.58;85.51;101711.69;20836924;28;20049;-76
2022/07/23 12:30:55;;;;;;;0.45;0.38;;;;;;;19.58;85.53;101708.13;20832908;28;20048;-75
2022/07/23 12:40:59;;;;;;;0.50;0.50;;;;;;;19.56;85.54;101703.72;20863712;28;20044;-76
2022/07/23 12:51:03;;;;;;;0.40;0.40;;;;;;;19.55;85.84;101707.41;20842439;28;20057;-75
2022/07/23 13:01:05;;;;;;;0.43;0.43;;;;;;;19.49;85.83;101699.81;20776115;28;20072;-74
2022/07/23 13:11:07;;;;;;;0.70;0.50;;;;;;;19.30;85.54;101672.59;20842743;28;20132;-75
2022/07/23 13:21:08;;;;;;;1.20;0.70;;;;;;;19.55;84.53;101712.81;20863461;28;20131;-73
2022/07/23 13:31:10;;;;;;;0.65;0.65;;;;;;;19.59;84.19;101702.59;20873337;28;20053;-73
2022/07/23 13:41:12;;;;;;;0.88;0.70;;;;;;;19.55;84.13;101696.59;20830683;28;20103;-73
2022/07/23 13:51:13;;;;;;;0.73;0.70;;;;;;;19.68;84.00;101703.66;20795217;28;20053;-74
2022/07/23 14:01:15;;;;;;;1.40;0.73;;;;;;;19.67;84.25;101697.44;20824295;28;20494;-74
2022/07/23 14:11:18;;;;;;;1.55;0.70;;;;;;;19.69;84.67;101687.34;20835630;28;20053;-75
2022/07/23 14:21:20;;;;;;;2.08;0.82;;;;;;;19.71;84.29;101690.78;20835447;28;20053;-74
2022/07/23 14:31:22;;;;;;;0.88;0.85;;;;;;;19.76;83.90;101693.06;20816927;28;20204;-75
2022/07/23 14:41:24;;;;;;;0.95;0.80;;;;;;;19.82;83.57;101694.41;20774529;28;20049;-75
2022/07/23 14:51:28;;;;;;;0.70;0.70;;;;;;;19.82;83.44;101687.13;20837472;28;20069;-75
2022/07/23 15:01:30;;;;;;;0.57;0.57;;;;;;;19.74;83.71;101665.31;20831520;28;20072;-76
2022/07/23 15:11:34;;;;;;;1.38;0.80;;;;;;;19.90;83.27;101688.38;20847343;28;20052;-75
2022/07/23 15:21:35;;;;;;;0.70;0.70;;;;;;;19.88;83.72;101690.31;20858021;28;20103;-75
2022/07/23 15:31:37;;;;;;;0.70;0.65;;;;;;;19.83;83.65;101698.81;20786032;28;20152;-75
2022/07/23 15:41:38;;;;;;;0.80;0.70;;;;;;;19.67;83.74;101666.84;20837955;28;22378;-75
2022/07/23 15:51:44;;;;;;;0.68;0.65;;;;;;;19.77;83.36;101689.38;20840771;28;20824;-75
2022/07/23 16:01:48;;;;;;;0.90;0.73;;;;;;;19.76;84.08;101676.03;20846649;28;20048;-75
2022/07/23 16:11:50;;;;;;;1.17;0.90;;;;;;;19.75;84.51;101668.91;20842165;28;20048;-75
2022/07/23 16:21:52;;;;;;;0.80;0.70;;;;;;;19.75;84.83;101663.50;20843008;28;20527;-75
2022/07/23 16:31:54;;;;;;;0.60;0.60;;;;;;;19.71;84.75;101661.06;20795892;28;20072;-74
2022/07/23 16:41:55;;;;;;;0.82;0.80;;;;;;;19.55;84.99;101634.47;20762023;28;20056;-76
2022/07/23 16:51:57;;;;;;;1.00;0.63;;;;;;;19.72;84.61;101651.09;20770127;28;20057;-75
2022/07/23 17:01:58;;;;;;;1.08;1.00;;;;;;;19.71;84.67;101660.19;20774450;28;20057;-75
2022/07/23 17:12:01;;;;;;;0.90;0.80;;;;;;;19.52;85.73;101621.25;20815101;28;20051;-75
2022/07/23 17:22:02;;;;;;;0.85;0.77;;;;;;;19.57;85.84;101639.75;20870110;28;20060;-75
2022/07/23 17:32:05;;;;;;;0.95;0.82;;;;;;;19.78;85.72;101677.59;20877516;28;20044;-75
2022/07/23 17:42:07;;;;;;;0.80;0.80;;;;;;;19.74;85.17;101668.03;20862258;28;20426;-74
2022/07/23 17:52:09;;;;;;;0.80;0.80;;;;;;;19.72;85.17;101670.00;20855403;28;20440;-75
2022/07/23 18:02:12;;;;;;;0.70;0.70;;;;;;;19.68;85.20;101666.72;20864748;28;20493;-78
2022/07/23 18:12:13;;;;;;;0.80;0.80;;;;;;;19.63;85.32;101659.97;20804387;28;20691;-74
2022/07/23 18:22:15;;;;;;;0.80;0.80;;;;;;;19.63;85.17;101676.19;20808083;28;20061;-76
2022/07/23 18:32:17;;;;;;;0.93;0.60;;;;;;;19.47;85.48;101639.69;20808748;28;20037;-74
2022/07/23 18:42:19;;;;;;;0.80;0.70;;;;;;;19.60;85.59;101668.34;20808391;28;20049;-74
2022/07/23 18:52:21;;;;;;;0.82;0.68;;;;;;;19.58;85.86;101671.16;20807588;28;20045;-74
2022/07/23 19:02:22;;;;;;;0.75;0.75;;;;;;;19.45;86.13;101657.84;20804863;28;20513;-74
2022/07/23 19:12:24;;;;;;;1.17;0.80;;;;;;;19.55;86.33;101676.81;20894265;28;20048;-74
2022/07/23 19:22:28;;;;;;;0.73;0.73;;;;;;;19.53;86.61;101681.50;20969868;28;20056;-74
2022/07/23 19:32:30;;;;;;;0.85;0.70;;;;;;;19.38;86.80;101662.03;20969277;28;20076;-74
2022/07/23 19:42:37;;;;;;;1.10;0.70;;;;;;;19.51;87.08;101683.47;20968834;28;20446;-74
2022/07/23 19:52:39;;;;;;;0.80;0.80;;;;;;;19.38;87.20;101675.53;20966952;28;20075;-74
2022/07/23 20:02:41;;;;;;;0.90;0.90;;;;;;;19.49;87.45;101685.44;20965408;28;20044;-74
2022/07/23 20:12:43;;;;;;;1.00;0.90;;;;;;;19.48;87.35;101679.19;20954925;28;20887;-74
2022/07/23 20:22:44;;;;;;;1.92;0.90;;;;;;;19.47;87.44;101691.00;20964105;28;20050;-74
2022/07/23 20:32:46;;;;;;;1.42;0.75;;;;;;;19.47;87.68;101691.00;20964543;28;20513;-74
2022/07/23 20:42:48;;;;;;;1.30;0.85;;;;;;;19.47;87.74;101692.81;20961722;28;20451;-74
2022/07/23 20:52:49;;;;;;;1.13;0.90;;;;;;;19.46;87.60;101691.09;20962459;28;20075;-75
2022/07/23 21:02:51;;;;;;;0.85;0.77;;;;;;;19.34;87.76;101687.56;20964093;28;20047;-74
2022/07/23 21:12:53;;;;;;;0.88;0.82;;;;;;;19.39;87.71;101674.53;20944630;28;20109;-75
2022/07/23 21:22:54;;;;;;;1.50;0.93;;;;;;;19.43;87.81;101681.41;20958827;28;20049;-74
2022/07/23 21:32:56;;;;;;;1.10;0.73;;;;;;;19.42;87.83;101685.09;20959162;28;20072;-74
2022/07/23 21:42:57;;;;;;;0.60;0.60;;;;;;;19.41;88.22;101688.78;20957939;28;20114;-74
2022/07/23 21:52:59;;;;;;;1.30;0.90;;;;;;;19.41;88.01;101678.84;20958357;28;20037;-74
2022/07/23 22:03:02;;;;;;;1.42;0.90;;;;;;;19.14;88.00;101633.41;20957957;28;20044;-74
2022/07/23 22:13:03;;;;;;;1.02;0.88;;;;;;;19.40;88.16;101673.56;20949625;28;20052;-74
2022/07/23 22:23:05;;;;;;;1.27;0.90;;;;;;;19.40;88.14;101684.34;20958134;28;20060;-74
2022/07/23 22:33:07;;;;;;;1.52;1.05;;;;;;;19.26;88.14;101664.75;20958772;28;20052;-74
2022/07/23 22:43:09;;;;;;;1.35;1.15;;;;;;;19.37;88.12;101660.31;20957035;28;20052;-74
2022/07/23 22:53:11;;;;;;;0.95;0.95;;;;;;;19.36;88.19;101650.50;20969232;28;20044;-74
2022/07/23 23:03:12;;;;;;;0.93;0.90;;;;;;;19.36;88.04;101658.59;20907133;28;20048;-75
2022/07/23 23:13:14;;;;;;;1.13;1.05;;;;;;;19.30;88.11;101642.91;20971138;28;20147;-75
2022/07/23 23:23:16;;;;;;;1.40;1.13;;;;;;;18.51;87.95;101512.59;20968438;28;20036;-75
2022/07/23 23:33:17;;;;;;;1.15;1.05;;;;;;;19.34;88.05;101644.38;20967379;28;20086;-78
2022/07/23 23:43:19;;;;;;;1.75;1.15;;;;;;;19.34;88.03;101634.44;20966633;28;20052;-74
2022/07/23 23:53:20;;;;;;;1.00;0.90;;;;;;;19.34;87.81;101633.56;20967041;28;20052;-74
